createdAt,value
2023-03-11T00:03:21.264Z,2.56
2023-03-11T00:07:23.954Z,2.57
2023-03-11T00:11:25.306Z,2.48
2023-03-11T00:15:27.171Z,2.49
2023-03-11T00:19:28.543Z,2.51
2023-03-11T00:23:31.258Z,2.50
2023-03-11T00:27:32.590Z,2.52
2023-03-11T00:31:33.956Z,2.54
2023-03-11T00:35:35.812Z,2.44
2023-03-11T00:39:38.564Z,2.49
2023-03-11T00:43:39.911Z,2.46
2023-03-11T00:47:41.329Z,2.45
2023-03-11T00:51:42.707Z,2.44
2023-03-11T00:55:45.411Z,2.41
2023-03-11T00:59:46.814Z,2.38
2023-03-11T01:03:48.200Z,2.40
2023-03-11T01:07:49.587Z,2.42
2023-03-11T01:11:52.300Z,2.40
2023-03-11T01:15:53.753Z,2.34
2023-03-11T01:19:55.156Z,2.36
2023-03-11T01:23:56.524Z,2.20
2023-03-11T01:27:59.309Z,2.21
2023-03-11T01:32:00.817Z,2.28
2023-03-11T01:36:02.262Z,2.22
2023-03-11T01:40:04.085Z,2.29
2023-03-11T01:44:06.922Z,2.31
2023-03-11T01:48:09.111Z,2.15
2023-03-11T01:52:10.482Z,2.11
2023-03-11T01:56:12.972Z,2.16
2023-03-11T02:00:16.133Z,2.17
2023-03-11T02:04:17.525Z,2.15
2023-03-11T02:08:18.871Z,2.09
2023-03-11T02:12:20.707Z,2.05
2023-03-11T02:16:23.541Z,2.05
2023-03-11T02:20:30.669Z,1.98
2023-03-11T02:24:40.065Z,1.99
2023-03-11T02:28:43.504Z,2.07
2023-03-11T02:32:46.470Z,2.10
2023-03-11T02:36:47.821Z,2.14
2023-03-11T02:40:51.710Z,2.08
2023-03-11T02:44:58.747Z,1.98
2023-03-11T02:49:00.330Z,2.05
2023-03-11T02:53:01.654Z,2.02
2023-03-11T02:57:03.068Z,1.95
2023-03-11T03:01:06.048Z,1.98
2023-03-11T03:05:07.880Z,2.00
2023-03-11T03:09:09.226Z,2.01
2023-03-11T03:13:10.569Z,2.01
2023-03-11T03:17:13.363Z,2.15
2023-03-11T03:21:14.782Z,2.05
2023-03-11T03:25:16.400Z,2.00
2023-03-11T03:29:17.792Z,2.01
2023-03-11T03:33:20.490Z,1.97
2023-03-11T03:37:21.827Z,1.91
2023-03-11T03:41:23.225Z,1.96
2023-03-11T03:45:24.562Z,1.93
2023-03-11T03:49:27.307Z,1.94
2023-03-11T03:53:28.663Z,1.88
2023-03-11T03:57:30.249Z,1.86
2023-03-11T04:01:31.640Z,1.77
2023-03-11T04:05:34.400Z,1.78
2023-03-11T04:09:39.612Z,1.81
2023-03-11T04:13:41.042Z,1.79
2023-03-11T04:17:42.404Z,1.85
2023-03-11T04:21:45.138Z,1.86
2023-03-11T04:25:46.547Z,1.83
2023-03-11T04:29:47.919Z,1.82
2023-03-11T04:33:49.304Z,1.65
2023-03-11T04:37:52.018Z,1.73
2023-03-11T04:41:53.353Z,1.79
2023-03-11T04:45:54.834Z,1.70
2023-03-11T04:49:56.263Z,1.69
2023-03-11T04:53:59.018Z,1.75
2023-03-11T04:58:00.434Z,1.70
2023-03-11T05:02:01.781Z,1.64
2023-03-11T05:06:03.250Z,1.60
2023-03-11T05:10:06.701Z,1.53
2023-03-11T05:14:08.070Z,1.47
2023-03-11T05:18:09.423Z,1.57
2023-03-11T05:22:10.785Z,1.45
2023-03-11T05:26:13.578Z,1.39
2023-03-11T05:30:15.300Z,1.29
2023-03-11T05:34:17.216Z,1.31
2023-03-11T05:38:18.574Z,1.24
2023-03-11T05:42:21.623Z,1.23
2023-03-11T05:46:23.327Z,1.25
2023-03-11T05:50:24.799Z,1.33
2023-03-11T05:54:26.199Z,1.28
2023-03-11T05:58:29.418Z,1.23
2023-03-11T06:02:30.817Z,1.19
2023-03-11T06:06:32.235Z,1.16
2023-03-11T06:10:33.603Z,1.10
2023-03-11T06:14:36.345Z,1.22
2023-03-11T06:18:38.025Z,1.24
2023-03-11T06:22:40.360Z,1.24
2023-03-11T06:26:41.811Z,1.16
2023-03-11T06:30:44.561Z,1.20
2023-03-11T06:34:49.751Z,1.25
2023-03-11T06:38:51.317Z,1.32
2023-03-11T06:42:52.659Z,1.26
2023-03-11T06:46:55.404Z,1.23
2023-03-11T06:50:57.525Z,1.35
2023-03-11T06:54:58.880Z,1.46
2023-03-11T06:59:00.398Z,1.54
2023-03-11T07:03:03.150Z,1.65
2023-03-11T07:07:04.572Z,1.83
2023-03-11T07:11:07.258Z,1.87
2023-03-11T07:15:09.437Z,1.83
2023-03-11T07:19:12.281Z,2.11
2023-03-11T07:23:13.627Z,2.52
2023-03-11T07:27:15.237Z,2.37
2023-03-11T07:31:18.517Z,2.18
2023-03-11T07:35:21.338Z,2.28
2023-03-11T07:39:22.717Z,2.07
2023-03-11T07:43:24.065Z,1.99
2023-03-11T07:47:25.424Z,2.04
2023-03-11T07:51:29.130Z,2.07
2023-03-11T07:55:30.748Z,2.00
2023-03-11T07:59:32.185Z,2.16
2023-03-11T08:03:33.684Z,2.21
2023-03-11T08:07:36.485Z,2.37
2023-03-11T08:11:38.281Z,2.27
2023-03-11T08:15:39.720Z,2.32
2023-03-11T08:19:41.104Z,2.28
2023-03-11T08:23:43.934Z,2.34
2023-03-11T08:27:45.377Z,2.50
2023-03-11T08:31:46.799Z,2.61
2023-03-11T08:35:48.268Z,2.44
2023-03-11T08:39:51.316Z,2.49
2023-03-11T08:43:52.676Z,2.50
2023-03-11T08:47:54.164Z,2.61
2023-03-11T08:51:55.528Z,2.22
2023-03-11T08:55:58.271Z,1.89
2023-03-11T08:59:59.605Z,1.96
2023-03-11T09:04:01.000Z,2.06
2023-03-11T09:08:04.361Z,2.03
2023-03-11T09:12:08.726Z,1.94
2023-03-11T09:16:12.128Z,1.78
2023-03-11T09:20:14.089Z,1.81
2023-03-11T09:24:15.485Z,1.74
2023-03-11T09:28:18.249Z,1.77
2023-03-11T09:32:19.680Z,1.88
2023-03-11T09:36:21.737Z,1.96
2023-03-11T09:40:25.515Z,2.14
2023-03-11T09:44:34.211Z,2.15
2023-03-11T09:48:40.298Z,2.08
2023-03-11T09:52:44.066Z,2.32
2023-03-11T09:56:45.671Z,2.32
2023-03-11T10:00:49.244Z,2.19
2023-03-11T10:04:56.137Z,2.41
2023-03-11T10:09:00.628Z,2.38
2023-03-11T10:13:09.452Z,2.55
2023-03-11T10:17:17.452Z,2.78
2023-03-11T10:21:25.797Z,2.83
2023-03-11T10:25:28.988Z,3.22
2023-03-11T10:29:32.579Z,3.46
2023-03-11T10:33:38.154Z,3.62
2023-03-11T10:37:49.326Z,3.62
2023-03-11T10:41:53.557Z,3.39
2023-03-11T10:45:55.005Z,3.56
2023-03-11T10:49:57.788Z,3.69
2023-03-11T10:54:00.336Z,4.12
2023-03-11T10:58:06.041Z,4.11
2023-03-11T11:02:21.274Z,3.89
2023-03-11T11:06:26.729Z,3.72
2023-03-11T11:10:28.694Z,3.99
2023-03-11T11:14:47.783Z,4.24
2023-03-11T11:18:50.619Z,4.19
2023-03-11T11:22:54.369Z,4.11
2023-03-11T11:27:05.680Z,3.73
2023-03-11T11:31:20.747Z,3.47
2023-03-11T11:35:23.045Z,3.49
2023-03-11T11:39:26.179Z,3.54
2023-03-11T11:43:35.998Z,3.81
2023-03-11T11:47:39.817Z,4.02
2023-03-11T11:51:44.385Z,3.97
2023-03-11T11:55:49.423Z,4.02
2023-03-11T11:59:51.015Z,4.11
2023-03-11T12:04:10.192Z,4.01
2023-03-11T12:08:15.714Z,4.04
2023-03-11T12:12:23.209Z,4.29
2023-03-11T12:16:31.143Z,4.62
2023-03-11T12:20:34.639Z,4.61
2023-03-11T12:24:45.837Z,4.60
2023-03-11T12:28:53.111Z,4.63
2023-03-11T12:32:57.174Z,4.72
2023-03-11T12:37:00.091Z,4.92
2023-03-11T12:41:03.856Z,4.93
2023-03-11T12:45:20.106Z,4.79
2023-03-11T12:49:24.822Z,4.62
2023-03-11T12:53:41.800Z,4.58
2023-03-11T12:57:50.705Z,4.24
2023-03-11T13:01:56.457Z,4.31
2023-03-11T13:06:03.841Z,4.27
2023-03-11T13:10:12.040Z,4.47
2023-03-11T13:14:23.244Z,4.61
2023-03-11T13:18:25.405Z,5.02
2023-03-11T13:22:45.665Z,5.10
2023-03-11T13:26:50.254Z,5.09
2023-03-11T13:30:54.342Z,4.80
2023-03-11T13:35:02.264Z,4.44
2023-03-11T13:39:15.449Z,4.42
2023-03-11T13:43:19.606Z,4.37
2023-03-11T13:47:21.308Z,4.18
2023-03-11T13:51:25.533Z,4.18
2023-03-11T13:55:30.592Z,4.04
2023-03-11T13:59:33.955Z,3.95
2023-03-11T14:03:40.486Z,3.83
2023-03-11T14:07:41.929Z,3.71
2023-03-11T14:11:43.292Z,3.46
2023-03-11T14:15:48.167Z,3.47
2023-03-11T14:20:06.162Z,3.38
2023-03-11T14:24:16.122Z,3.16
2023-03-11T14:28:19.859Z,3.14
2023-03-11T14:32:30.619Z,3.37
2023-03-11T14:36:40.549Z,3.39
2023-03-11T14:40:42.035Z,3.25
2023-03-11T14:44:43.884Z,3.28
2023-03-11T14:48:46.743Z,3.28
2023-03-11T14:52:50.801Z,3.33
2023-03-11T14:56:55.153Z,3.36
2023-03-11T15:00:59.312Z,3.48
2023-03-11T15:05:04.521Z,3.72
2023-03-11T15:09:07.050Z,3.78
2023-03-11T15:13:10.622Z,3.96
2023-03-11T15:17:31.499Z,3.75
2023-03-11T15:21:36.889Z,3.55
2023-03-11T15:25:38.807Z,3.64
2023-03-11T15:29:49.561Z,3.69
2023-03-11T15:33:50.928Z,3.62
2023-03-11T15:38:10.829Z,3.62
2023-03-11T15:42:17.279Z,3.73
2023-03-11T15:46:18.756Z,3.63
2023-03-11T15:50:25.197Z,3.66
2023-03-11T15:54:27.786Z,3.72
2023-03-11T15:58:30.684Z,3.62
2023-03-11T16:02:32.319Z,3.74
2023-03-11T16:06:33.681Z,3.55
2023-03-11T16:10:35.226Z,3.46
2023-03-11T16:14:37.951Z,3.41
2023-03-11T16:18:39.304Z,3.40
2023-03-11T16:22:40.740Z,3.43
2023-03-11T16:26:42.130Z,3.39
2023-03-11T16:30:44.862Z,3.48
2023-03-11T16:34:46.495Z,3.22
2023-03-11T16:38:48.734Z,3.22
2023-03-11T16:42:50.128Z,3.21
2023-03-11T16:46:53.026Z,3.31
2023-03-11T16:50:54.434Z,3.15
2023-03-11T16:54:55.783Z,3.13
2023-03-11T16:58:57.159Z,3.21
2023-03-11T17:02:59.909Z,3.23
2023-03-11T17:07:01.283Z,3.02
2023-03-11T17:11:02.689Z,3.13
2023-03-11T17:15:04.715Z,3.06
2023-03-11T17:19:07.457Z,3.00
2023-03-11T17:23:08.971Z,3.01
2023-03-11T17:27:10.441Z,2.81
2023-03-11T17:31:12.055Z,2.74
2023-03-11T17:35:14.796Z,2.82
2023-03-11T17:39:16.160Z,2.72
2023-03-11T17:43:17.635Z,2.62
2023-03-11T17:47:19.184Z,2.30
2023-03-11T17:51:22.722Z,2.32
2023-03-11T17:55:24.067Z,2.18
2023-03-11T17:59:25.397Z,2.33
2023-03-11T18:03:26.756Z,2.29
2023-03-11T18:07:29.473Z,1.96
2023-03-11T18:11:30.967Z,1.77
2023-03-11T18:15:32.444Z,1.67
2023-03-11T18:19:33.891Z,1.52
2023-03-11T18:23:36.645Z,1.39
2023-03-11T18:27:38.109Z,1.41
2023-03-11T18:31:39.679Z,1.29
2023-03-11T18:35:41.135Z,1.27
2023-03-11T18:39:43.910Z,1.22
2023-03-11T18:43:45.548Z,1.17
2023-03-11T18:47:46.892Z,1.23
2023-03-11T18:51:48.259Z,1.30
2023-03-11T18:55:50.993Z,1.09
2023-03-11T18:59:52.365Z,1.01
2023-03-11T19:03:54.969Z,0.96
2023-03-11T19:07:56.331Z,0.89
2023-03-11T19:11:59.069Z,0.89
2023-03-11T19:16:00.426Z,0.87
2023-03-11T19:20:01.810Z,0.87
2023-03-11T19:24:03.302Z,0.81
2023-03-11T19:28:06.147Z,0.82
2023-03-11T19:32:07.502Z,0.67
2023-03-11T19:36:08.976Z,0.66
2023-03-11T19:40:11.580Z,0.63
2023-03-11T19:44:14.372Z,0.64
2023-03-11T19:48:15.760Z,0.63
2023-03-11T19:52:17.141Z,0.51
2023-03-11T19:56:18.588Z,0.47
2023-03-11T20:00:22.031Z,0.27
2023-03-11T20:04:23.638Z,0.13
2023-03-11T20:08:25.504Z,0.06
2023-03-11T20:12:26.882Z,-0.11
2023-03-11T20:16:29.668Z,-0.02
2023-03-11T20:20:31.614Z,-0.01
2023-03-11T20:24:33.034Z,-0.10
2023-03-11T20:28:34.486Z,-0.23
2023-03-11T20:32:37.257Z,-0.31
2023-03-11T20:36:39.070Z,-0.41
2023-03-11T20:40:40.548Z,-0.49
2023-03-11T20:44:42.015Z,-0.47
2023-03-11T20:48:45.683Z,-0.47
2023-03-11T20:52:47.125Z,-0.66
2023-03-11T20:56:48.614Z,-0.86
2023-03-11T21:00:49.966Z,-0.80
2023-03-11T21:04:52.707Z,-0.98
2023-03-11T21:08:54.538Z,-1.10
2023-03-11T21:12:56.020Z,-1.13
2023-03-11T21:16:57.458Z,-1.14
2023-03-11T21:21:00.264Z,-1.00
2023-03-11T21:25:01.783Z,-0.95
2023-03-11T21:29:03.311Z,-1.06
2023-03-11T21:33:04.893Z,-1.16
2023-03-11T21:37:07.688Z,-1.09
2023-03-11T21:41:10.382Z,-1.08
2023-03-11T21:45:11.898Z,-0.86
2023-03-11T21:49:13.430Z,-0.94
2023-03-11T21:53:16.255Z,-1.01
2023-03-11T21:57:17.722Z,-1.00
2023-03-11T22:01:19.234Z,-0.94
2023-03-11T22:05:20.600Z,-0.93
2023-03-11T22:09:23.577Z,-0.93
2023-03-11T22:13:25.282Z,-1.09
2023-03-11T22:17:26.828Z,-1.15
2023-03-11T22:21:28.528Z,-1.19
2023-03-11T22:25:31.277Z,-1.14
2023-03-11T22:29:32.639Z,-1.20
2023-03-11T22:33:34.033Z,-1.32
2023-03-11T22:37:35.400Z,-1.39
2023-03-11T22:41:38.143Z,-1.45
2023-03-11T22:45:39.539Z,-1.48
2023-03-11T22:49:40.952Z,-1.60
2023-03-11T22:53:42.351Z,-1.54
2023-03-11T22:57:45.119Z,-1.58
2023-03-11T23:01:46.469Z,-1.65
2023-03-11T23:05:47.794Z,-1.54
2023-03-11T23:09:49.188Z,-1.66
2023-03-11T23:13:51.910Z,-1.62
2023-03-11T23:17:53.301Z,-1.74
2023-03-11T23:21:54.712Z,-1.81
2023-03-11T23:25:56.050Z,-1.92
2023-03-11T23:29:58.807Z,-2.06
2023-03-11T23:34:00.188Z,-1.89
2023-03-11T23:38:01.553Z,-2.01
2023-03-11T23:42:11.789Z,-2.03
2023-03-11T23:46:25.265Z,-2.08
2023-03-11T23:50:26.655Z,-2.14
2023-03-11T23:54:28.029Z,-2.06
2023-03-11T23:58:29.664Z,-2.15
